createdAt,value
2023-02-05T00:00:19.906Z,92.69
2023-02-05T00:02:47.009Z,92.72
2023-02-05T00:05:13.898Z,92.91
2023-02-05T00:07:42.331Z,93.03
2023-02-05T00:10:09.305Z,93.10
2023-02-05T00:12:35.993Z,93.38
2023-02-05T00:15:02.647Z,93.44
2023-02-05T00:17:29.313Z,93.29
2023-02-05T00:19:56.507Z,93.37
2023-02-05T00:22:23.158Z,93.34
2023-02-05T00:24:49.745Z,93.19
2023-02-05T00:27:16.472Z,93.08
2023-02-05T00:29:43.112Z,93.16
2023-02-05T00:32:09.671Z,93.65
2023-02-05T00:34:36.258Z,93.87
2023-02-05T00:37:02.903Z,93.87
2023-02-05T00:39:29.626Z,93.88
2023-02-05T00:41:56.186Z,94.13
2023-02-05T00:44:22.744Z,94.21
2023-02-05T00:46:49.453Z,94.29
2023-02-05T00:49:16.232Z,94.60
2023-02-05T00:51:42.788Z,94.72
2023-02-05T00:54:09.452Z,95.48
2023-02-05T00:56:36.226Z,95.70
2023-02-05T00:59:02.976Z,95.64
2023-02-05T01:01:30.287Z,94.95
2023-02-05T01:03:56.843Z,95.36
2023-02-05T01:06:23.737Z,96.23
2023-02-05T01:08:50.435Z,95.55
2023-02-05T01:11:17.256Z,95.86
2023-02-05T01:13:43.998Z,95.55
2023-02-05T01:16:11.631Z,96.40
2023-02-05T01:18:38.235Z,96.30
2023-02-05T01:21:05.030Z,96.38
2023-02-05T01:23:31.990Z,96.00
2023-02-05T01:25:58.653Z,95.98
2023-02-05T01:28:25.256Z,96.18
2023-02-05T01:30:52.289Z,96.27
2023-02-05T01:33:19.144Z,96.40
2023-02-05T01:35:46.159Z,96.45
2023-02-05T01:38:13.883Z,96.47
2023-02-05T01:40:41.442Z,96.55
2023-02-05T01:43:15.974Z,96.62
2023-02-05T01:46:05.436Z,96.56
2023-02-05T01:48:42.981Z,96.58
2023-02-05T01:51:13.768Z,96.67
2023-02-05T01:53:40.672Z,96.51
2023-02-05T01:56:21.739Z,96.65
2023-02-05T01:59:02.464Z,96.56
2023-02-05T02:01:29.415Z,96.61
2023-02-05T02:03:59.555Z,96.76
2023-02-05T02:06:26.091Z,96.78
2023-02-05T02:08:53.076Z,96.89
2023-02-05T02:11:23.316Z,96.89
2023-02-05T02:13:53.367Z,96.89
2023-02-05T02:16:20.441Z,96.80
2023-02-05T02:18:47.577Z,96.94
2023-02-05T02:21:35.450Z,97.04
2023-02-05T02:24:20.580Z,97.04
2023-02-05T02:27:08.802Z,97.26
2023-02-05T02:29:47.156Z,97.26
2023-02-05T02:32:40.154Z,97.06
2023-02-05T02:35:14.904Z,97.45
2023-02-05T02:38:14.155Z,98.01
2023-02-05T02:40:46.631Z,98.38
2023-02-05T02:43:25.507Z,98.29
2023-02-05T02:45:59.935Z,98.12
2023-02-05T02:48:29.365Z,97.92
2023-02-05T02:50:58.597Z,97.99
2023-02-05T02:53:38.270Z,98.27
2023-02-05T02:56:07.453Z,98.08
2023-02-05T02:58:45.473Z,98.15
2023-02-05T03:01:13.366Z,98.13
2023-02-05T03:03:44.476Z,98.05
2023-02-05T03:06:14.139Z,98.18
2023-02-05T03:08:56.139Z,98.11
2023-02-05T03:11:23.003Z,98.15
2023-02-05T03:13:49.793Z,98.15
2023-02-05T03:16:20.720Z,98.28
2023-02-05T03:18:48.562Z,98.22
2023-02-05T03:21:35.299Z,98.08
2023-02-05T03:24:02.041Z,98.11
2023-02-05T03:26:31.834Z,97.76
2023-02-05T03:29:02.231Z,98.16
2023-02-05T03:31:37.093Z,98.65
2023-02-05T03:34:19.439Z,98.50
2023-02-05T03:37:09.602Z,98.63
2023-02-05T03:39:39.295Z,98.33
2023-02-05T03:42:37.027Z,98.32
2023-02-05T03:45:22.624Z,98.52
2023-02-05T03:48:02.193Z,98.37
2023-02-05T03:50:41.521Z,98.19
2023-02-05T03:53:33.081Z,98.21
2023-02-05T03:56:07.992Z,98.28
2023-02-05T03:58:41.750Z,98.30
2023-02-05T04:01:10.550Z,98.50
2023-02-05T04:03:37.958Z,98.62
2023-02-05T04:06:05.806Z,98.16
2023-02-05T04:08:32.579Z,98.29
2023-02-05T04:10:59.237Z,98.06
2023-02-05T04:13:25.864Z,96.83
2023-02-05T04:15:52.548Z,97.16
2023-02-05T04:18:19.469Z,96.83
2023-02-05T04:20:46.403Z,96.74
2023-02-05T04:23:13.133Z,96.47
2023-02-05T04:25:40.256Z,96.52
2023-02-05T04:28:07.322Z,96.75
2023-02-05T04:30:34.099Z,96.48
2023-02-05T04:33:00.780Z,96.32
2023-02-05T04:35:27.334Z,96.62
2023-02-05T04:37:53.965Z,96.22
2023-02-05T04:40:20.548Z,96.05
2023-02-05T04:42:47.137Z,96.61
2023-02-05T04:45:13.759Z,96.69
2023-02-05T04:47:41.828Z,96.95
2023-02-05T04:50:08.850Z,96.85
2023-02-05T04:52:35.524Z,96.43
2023-02-05T04:55:02.231Z,96.40
2023-02-05T04:57:31.016Z,96.43
2023-02-05T04:59:57.787Z,96.89
2023-02-05T05:02:24.843Z,96.71
2023-02-05T05:04:51.416Z,96.25
2023-02-05T05:07:18.028Z,96.32
2023-02-05T05:09:44.625Z,96.07
2023-02-05T05:12:11.263Z,96.32
2023-02-05T05:14:37.896Z,97.01
2023-02-05T05:17:04.725Z,96.81
2023-02-05T05:19:31.530Z,96.35
2023-02-05T05:21:58.795Z,96.34
2023-02-05T05:24:25.345Z,96.89
2023-02-05T05:26:51.893Z,97.37
2023-02-05T05:29:18.521Z,97.04
2023-02-05T05:31:45.163Z,96.60
2023-02-05T05:34:11.740Z,96.56
2023-02-05T05:36:39.992Z,96.76
2023-02-05T05:39:25.251Z,96.41
2023-02-05T05:42:10.488Z,96.33
2023-02-05T05:44:37.084Z,96.42
2023-02-05T05:47:03.722Z,96.68
2023-02-05T05:49:30.782Z,96.76
2023-02-05T05:51:57.354Z,97.50
2023-02-05T05:54:24.005Z,97.89
2023-02-05T05:56:51.527Z,97.38
2023-02-05T05:59:18.234Z,97.45
2023-02-05T06:01:44.876Z,97.41
2023-02-05T06:04:11.519Z,97.38
2023-02-05T06:06:38.209Z,97.42
2023-02-05T06:09:04.905Z,96.88
2023-02-05T06:11:32.084Z,97.13
2023-02-05T06:13:58.753Z,97.38
2023-02-05T06:16:25.475Z,96.81
2023-02-05T06:18:52.018Z,97.25
2023-02-05T06:21:18.635Z,97.54
2023-02-05T06:23:45.252Z,97.47
2023-02-05T06:26:12.070Z,97.17
2023-02-05T06:28:38.703Z,96.87
2023-02-05T06:31:05.548Z,96.76
2023-02-05T06:33:32.172Z,96.59
2023-02-05T06:35:58.796Z,96.60
2023-02-05T06:38:25.329Z,96.64
2023-02-05T06:40:51.937Z,96.87
2023-02-05T06:43:18.526Z,96.70
2023-02-05T06:45:45.138Z,96.64
2023-02-05T06:48:11.745Z,96.41
2023-02-05T06:50:38.370Z,96.00
2023-02-05T06:53:05.008Z,96.00
2023-02-05T06:55:33.082Z,96.03
2023-02-05T06:57:59.922Z,96.56
2023-02-05T07:00:26.979Z,96.58
2023-02-05T07:02:55.121Z,96.71
2023-02-05T07:05:21.771Z,96.06
2023-02-05T07:07:49.865Z,95.85
2023-02-05T07:10:16.740Z,96.45
2023-02-05T07:12:43.496Z,96.48
2023-02-05T07:15:10.261Z,96.44
2023-02-05T07:17:37.252Z,96.06
2023-02-05T07:20:04.518Z,96.02
2023-02-05T07:22:31.215Z,95.93
2023-02-05T07:24:57.883Z,95.41
2023-02-05T07:27:24.623Z,96.00
2023-02-05T07:29:51.335Z,95.76
2023-02-05T07:32:17.958Z,95.57
2023-02-05T07:34:44.535Z,95.40
2023-02-05T07:37:13.141Z,94.40
2023-02-05T07:39:39.875Z,93.91
2023-02-05T07:42:06.461Z,92.94
2023-02-05T07:44:33.116Z,92.38
2023-02-05T07:46:59.677Z,92.92
2023-02-05T07:49:26.369Z,93.25
2023-02-05T07:51:52.895Z,93.42
2023-02-05T07:54:19.603Z,93.37
2023-02-05T07:56:46.554Z,93.45
2023-02-05T07:59:13.105Z,93.65
2023-02-05T08:01:39.670Z,93.62
2023-02-05T08:04:06.331Z,93.50
2023-02-05T08:06:33.984Z,93.77
2023-02-05T08:09:00.569Z,93.86
2023-02-05T08:11:27.201Z,93.62
2023-02-05T08:13:53.734Z,93.78
2023-02-05T08:16:20.321Z,93.85
2023-02-05T08:18:49.226Z,93.82
2023-02-05T08:21:16.392Z,93.40
2023-02-05T08:23:42.971Z,93.01
2023-02-05T08:26:09.693Z,91.51
2023-02-05T08:28:36.376Z,90.99
2023-02-05T08:31:09.638Z,90.67
2023-02-05T08:33:36.206Z,90.45
2023-02-05T08:36:02.912Z,90.88
2023-02-05T08:38:29.620Z,90.53
2023-02-05T08:40:57.876Z,90.04
2023-02-05T08:43:24.611Z,90.03
2023-02-05T08:45:51.245Z,90.33
2023-02-05T08:48:17.848Z,90.37
2023-02-05T08:50:47.485Z,90.37
2023-02-05T08:53:14.138Z,90.48
2023-02-05T08:55:40.763Z,91.07
2023-02-05T08:58:07.391Z,90.71
2023-02-05T09:00:37.851Z,90.33
2023-02-05T09:03:04.587Z,89.50
2023-02-05T09:05:31.164Z,89.19
2023-02-05T09:07:59.131Z,89.42
2023-02-05T09:10:25.799Z,89.68
2023-02-05T09:12:53.082Z,89.42
2023-02-05T09:15:19.648Z,89.99
2023-02-05T09:17:46.392Z,89.65
2023-02-05T09:20:12.946Z,89.53
2023-02-05T09:22:39.503Z,89.29
2023-02-05T09:25:07.254Z,89.08
2023-02-05T09:27:34.152Z,88.56
2023-02-05T09:30:00.783Z,88.27
2023-02-05T09:32:27.358Z,87.53
2023-02-05T09:34:54.053Z,87.94
2023-02-05T09:37:20.862Z,87.33
2023-02-05T09:40:19.995Z,87.35
2023-02-05T09:42:52.736Z,85.92
2023-02-05T09:45:43.448Z,85.57
2023-02-05T09:48:38.546Z,85.24
2023-02-05T09:51:08.476Z,85.07
2023-02-05T09:53:39.055Z,83.54
2023-02-05T09:56:08.089Z,82.77
2023-02-05T09:58:40.307Z,81.53
2023-02-05T10:01:16.276Z,81.06
2023-02-05T10:03:49.788Z,80.14
2023-02-05T10:06:24.686Z,79.64
2023-02-05T10:09:20.392Z,79.37
2023-02-05T10:12:12.163Z,77.76
2023-02-05T10:15:06.724Z,74.53
2023-02-05T10:17:45.522Z,71.51
2023-02-05T10:20:47.281Z,70.95
2023-02-05T10:23:34.527Z,69.97
2023-02-05T10:26:03.675Z,68.54
2023-02-05T10:28:45.414Z,68.88
2023-02-05T10:31:39.362Z,68.78
2023-02-05T10:34:31.961Z,68.72
2023-02-05T10:37:01.840Z,69.97
2023-02-05T10:39:30.357Z,70.02
2023-02-05T10:42:04.139Z,71.18
2023-02-05T10:44:42.792Z,70.81
2023-02-05T10:47:18.223Z,71.57
2023-02-05T10:49:53.324Z,71.80
2023-02-05T10:52:20.876Z,70.51
2023-02-05T10:54:48.026Z,70.78
2023-02-05T10:57:18.136Z,70.47
2023-02-05T10:59:56.826Z,70.87
2023-02-05T11:02:31.307Z,69.16
2023-02-05T11:05:17.918Z,67.85
2023-02-05T11:07:48.023Z,67.87
2023-02-05T11:10:18.474Z,67.73
2023-02-05T11:12:48.460Z,67.05
2023-02-05T11:15:21.511Z,66.84
2023-02-05T11:18:05.611Z,66.46
2023-02-05T11:20:37.160Z,66.96
2023-02-05T11:23:19.930Z,66.54
2023-02-05T11:26:01.140Z,67.02
2023-02-05T11:28:33.678Z,68.06
2023-02-05T11:31:20.536Z,68.16
2023-02-05T11:33:48.520Z,66.99
2023-02-05T11:36:25.496Z,68.22
2023-02-05T11:38:57.163Z,66.93
2023-02-05T11:41:28.224Z,67.43
2023-02-05T11:43:56.051Z,68.51
2023-02-05T11:46:24.875Z,66.69
2023-02-05T11:48:59.148Z,66.79
2023-02-05T11:51:34.754Z,66.76
2023-02-05T11:54:07.544Z,65.47
2023-02-05T11:56:34.138Z,66.13
2023-02-05T11:59:03.443Z,66.17
2023-02-05T12:01:34.971Z,65.98
2023-02-05T12:04:01.705Z,66.24
2023-02-05T12:06:35.449Z,66.82
2023-02-05T12:09:02.731Z,66.16
2023-02-05T12:12:03.320Z,66.27
2023-02-05T12:15:08.147Z,66.16
2023-02-05T12:17:42.422Z,65.31
2023-02-05T12:20:30.426Z,65.27
2023-02-05T12:23:14.904Z,64.73
2023-02-05T12:26:19.075Z,64.85
2023-02-05T12:29:03.974Z,64.74
2023-02-05T12:31:59.169Z,64.36
2023-02-05T12:34:45.491Z,64.83
2023-02-05T12:37:23.938Z,64.68
2023-02-05T12:40:13.812Z,65.69
2023-02-05T12:42:52.860Z,65.27
2023-02-05T12:45:34.664Z,65.31
2023-02-05T12:48:28.120Z,63.83
2023-02-05T12:51:18.063Z,63.63
2023-02-05T12:53:50.822Z,64.12
2023-02-05T12:56:49.573Z,63.04
2023-02-05T12:59:28.929Z,62.41
2023-02-05T13:02:01.285Z,62.09
2023-02-05T13:04:39.246Z,62.12
2023-02-05T13:07:18.460Z,62.16
2023-02-05T13:09:53.103Z,62.11
2023-02-05T13:12:23.300Z,62.20
2023-02-05T13:15:08.675Z,60.87
2023-02-05T13:17:42.187Z,61.78
2023-02-05T13:20:22.471Z,62.72
2023-02-05T13:23:14.748Z,62.15
2023-02-05T13:26:07.857Z,62.76
2023-02-05T13:28:42.354Z,62.82
2023-02-05T13:31:21.458Z,62.36
2023-02-05T13:33:48.961Z,61.94
2023-02-05T13:36:24.418Z,61.62
2023-02-05T13:39:33.838Z,60.56
2023-02-05T13:42:03.662Z,62.49
2023-02-05T13:45:08.104Z,61.30
2023-02-05T13:47:49.873Z,61.02
2023-02-05T13:50:34.501Z,60.80
2023-02-05T13:53:12.927Z,61.20
2023-02-05T13:55:53.210Z,62.46
2023-02-05T13:58:29.423Z,61.51
2023-02-05T14:01:42.557Z,61.93
2023-02-05T14:04:25.277Z,62.44
2023-02-05T14:07:00.332Z,62.41
2023-02-05T14:09:43.209Z,63.47
2023-02-05T14:12:22.502Z,64.54
2023-02-05T14:15:18.553Z,64.21
2023-02-05T14:17:45.080Z,63.89
2023-02-05T14:20:31.276Z,64.75
2023-02-05T14:23:02.943Z,63.15
2023-02-05T14:25:36.426Z,62.48
2023-02-05T14:28:15.855Z,63.27
2023-02-05T14:30:58.718Z,62.17
2023-02-05T14:33:36.221Z,62.63
2023-02-05T14:36:22.307Z,63.03
2023-02-05T14:38:55.027Z,64.95
2023-02-05T14:41:27.582Z,65.73
2023-02-05T14:43:54.164Z,66.00
2023-02-05T14:46:30.012Z,67.53
2023-02-05T14:48:59.781Z,66.79
2023-02-05T14:51:39.801Z,67.68
2023-02-05T14:54:16.143Z,67.48
2023-02-05T14:56:48.387Z,67.78
2023-02-05T14:59:38.434Z,68.17
2023-02-05T15:02:43.593Z,68.04
2023-02-05T15:05:27.133Z,68.00
2023-02-05T15:08:08.484Z,68.48
2023-02-05T15:10:54.076Z,67.57
2023-02-05T15:13:22.536Z,68.49
2023-02-05T15:16:16.423Z,68.73
2023-02-05T15:18:59.370Z,69.46
2023-02-05T15:21:35.627Z,70.13
2023-02-05T15:24:13.765Z,70.65
2023-02-05T15:26:52.269Z,70.37
2023-02-05T15:29:21.761Z,71.99
2023-02-05T15:31:54.717Z,72.47
2023-02-05T15:34:47.612Z,73.63
2023-02-05T15:37:19.593Z,74.76
2023-02-05T15:40:11.187Z,75.47
2023-02-05T15:42:41.551Z,75.95
2023-02-05T15:45:29.424Z,76.42
2023-02-05T15:48:00.908Z,76.97
2023-02-05T15:50:29.015Z,78.50
2023-02-05T15:52:56.932Z,79.03
2023-02-05T15:55:42.114Z,79.67
2023-02-05T15:58:27.983Z,79.86
2023-02-05T16:01:23.838Z,80.16
2023-02-05T16:04:40.197Z,80.58
2023-02-05T16:07:36.997Z,81.28
2023-02-05T16:10:33.664Z,82.24
2023-02-05T16:13:14.427Z,83.00
2023-02-05T16:16:06.772Z,83.74
2023-02-05T16:18:41.759Z,83.47
2023-02-05T16:21:17.125Z,83.22
2023-02-05T16:23:55.028Z,83.27
2023-02-05T16:26:25.808Z,83.67
2023-02-05T16:29:07.679Z,83.15
2023-02-05T16:31:37.420Z,82.69
2023-02-05T16:34:07.109Z,83.48
2023-02-05T16:36:45.220Z,83.24
2023-02-05T16:39:23.572Z,82.46
2023-02-05T16:42:04.173Z,82.47
2023-02-05T16:44:35.236Z,83.62
2023-02-05T16:47:20.036Z,84.55
2023-02-05T16:49:48.190Z,84.51
2023-02-05T16:52:28.425Z,83.77
2023-02-05T16:54:55.123Z,83.36
2023-02-05T16:57:32.002Z,83.34
2023-02-05T17:00:20.393Z,83.26
2023-02-05T17:02:52.980Z,83.46
2023-02-05T17:05:38.371Z,83.95
2023-02-05T17:08:08.448Z,84.52
2023-02-05T17:10:57.491Z,85.27
2023-02-05T17:13:42.071Z,86.30
2023-02-05T17:16:30.762Z,87.02
2023-02-05T17:19:01.540Z,87.12
2023-02-05T17:21:33.653Z,87.22
2023-02-05T17:24:02.841Z,87.74
2023-02-05T17:26:32.259Z,88.53
2023-02-05T17:29:05.662Z,89.05
2023-02-05T17:31:38.886Z,89.53
2023-02-05T17:34:05.848Z,89.68
2023-02-05T17:36:32.667Z,89.72
2023-02-05T17:38:59.224Z,89.77
2023-02-05T17:41:47.108Z,89.75
2023-02-05T17:44:15.773Z,89.89
2023-02-05T17:46:43.492Z,90.24
2023-02-05T17:49:10.834Z,90.71
2023-02-05T17:51:41.652Z,90.61
2023-02-05T17:54:17.611Z,90.82
2023-02-05T17:56:45.533Z,90.89
2023-02-05T17:59:16.033Z,91.17
2023-02-05T18:01:42.697Z,91.70
2023-02-05T18:04:09.255Z,91.79
2023-02-05T18:06:36.949Z,91.98
2023-02-05T18:09:03.875Z,92.22
2023-02-05T18:11:31.120Z,92.28
2023-02-05T18:13:57.786Z,92.36
2023-02-05T18:16:25.057Z,92.44
2023-02-05T18:18:51.730Z,92.53
2023-02-05T18:21:21.365Z,92.65
2023-02-05T18:23:50.395Z,92.98
2023-02-05T18:26:17.063Z,92.94
2023-02-05T18:28:43.794Z,92.88
2023-02-05T18:31:10.913Z,92.86
2023-02-05T18:33:37.615Z,93.06
2023-02-05T18:36:07.157Z,93.12
2023-02-05T18:38:34.978Z,93.14
2023-02-05T18:41:09.636Z,93.23
2023-02-05T18:43:36.961Z,93.26
2023-02-05T18:46:12.338Z,93.42
2023-02-05T18:48:40.806Z,93.54
2023-02-05T18:51:10.831Z,93.51
2023-02-05T18:53:39.206Z,93.64
2023-02-05T18:56:18.202Z,93.80
2023-02-05T18:58:51.383Z,93.93
2023-02-05T19:01:21.579Z,94.01
2023-02-05T19:03:48.317Z,94.16
2023-02-05T19:06:16.904Z,94.31
2023-02-05T19:08:44.102Z,94.38
2023-02-05T19:11:22.694Z,94.31
2023-02-05T19:13:56.364Z,94.67
2023-02-05T19:16:23.816Z,94.53
2023-02-05T19:18:50.740Z,94.52
2023-02-05T19:21:20.040Z,94.61
2023-02-05T19:23:50.896Z,94.61
2023-02-05T19:26:20.389Z,94.80
2023-02-05T19:28:52.680Z,94.81
2023-02-05T19:31:19.628Z,94.75
2023-02-05T19:33:46.353Z,95.40
2023-02-05T19:36:13.010Z,95.44
2023-02-05T19:38:40.897Z,95.30
2023-02-05T19:41:08.296Z,95.07
2023-02-05T19:43:35.041Z,95.01
2023-02-05T19:46:06.186Z,95.01
2023-02-05T19:48:34.339Z,95.06
2023-02-05T19:51:08.964Z,95.08
2023-02-05T19:53:41.412Z,95.25
2023-02-05T19:56:11.672Z,95.20
2023-02-05T19:58:41.286Z,95.11
2023-02-05T20:01:15.710Z,95.11
2023-02-05T20:03:44.685Z,95.25
2023-02-05T20:06:13.942Z,95.37
2023-02-05T20:08:41.013Z,95.25
2023-02-05T20:11:07.636Z,95.24
2023-02-05T20:13:36.372Z,95.35
2023-02-05T20:16:04.978Z,95.38
2023-02-05T20:18:31.643Z,95.69
2023-02-05T20:20:58.507Z,95.84
2023-02-05T20:23:25.816Z,95.77
2023-02-05T20:26:03.839Z,95.80
2023-02-05T20:28:32.316Z,95.77
2023-02-05T20:31:17.735Z,95.72
2023-02-05T20:33:44.593Z,96.05
2023-02-05T20:36:12.709Z,96.67
2023-02-05T20:38:39.877Z,96.73
2023-02-05T20:41:14.760Z,96.66
2023-02-05T20:43:41.426Z,96.48
2023-02-05T20:46:09.127Z,96.22
2023-02-05T20:48:35.678Z,96.14
2023-02-05T20:51:15.333Z,96.16
2023-02-05T20:53:42.112Z,96.10
2023-02-05T20:56:15.650Z,96.16
2023-02-05T20:58:42.694Z,96.19
2023-02-05T21:01:14.134Z,96.53
2023-02-05T21:03:44.842Z,97.13
2023-02-05T21:06:12.446Z,97.16
2023-02-05T21:08:40.363Z,96.93
2023-02-05T21:11:07.407Z,96.81
2023-02-05T21:13:34.319Z,96.89
2023-02-05T21:16:02.202Z,96.82
2023-02-05T21:18:29.734Z,96.68
2023-02-05T21:21:05.911Z,96.64
2023-02-05T21:23:32.645Z,96.82
2023-02-05T21:25:59.275Z,96.83
2023-02-05T21:28:25.948Z,96.84
2023-02-05T21:31:04.747Z,96.80
2023-02-05T21:33:32.019Z,96.93
2023-02-05T21:36:04.265Z,97.35
2023-02-05T21:38:31.796Z,97.68
2023-02-05T21:40:58.349Z,97.37
2023-02-05T21:43:25.280Z,97.03
2023-02-05T21:45:51.900Z,97.04
2023-02-05T21:48:18.474Z,97.54
2023-02-05T21:50:45.075Z,97.23
2023-02-05T21:53:12.456Z,96.86
2023-02-05T21:55:39.060Z,96.84
2023-02-05T21:58:05.623Z,96.95
2023-02-05T22:00:32.208Z,97.06
2023-02-05T22:02:58.844Z,97.05
2023-02-05T22:05:25.411Z,97.70
2023-02-05T22:07:53.395Z,97.17
2023-02-05T22:10:19.938Z,96.87
2023-02-05T22:12:46.548Z,97.13
2023-02-05T22:15:13.416Z,97.38
2023-02-05T22:17:40.256Z,96.78
2023-02-05T22:20:07.246Z,96.75
2023-02-05T22:22:35.959Z,96.48
2023-02-05T22:25:04.036Z,96.53
2023-02-05T22:27:31.679Z,97.02
2023-02-05T22:29:58.401Z,96.94
2023-02-05T22:32:25.004Z,96.78
2023-02-05T22:34:53.993Z,97.09
2023-02-05T22:37:20.756Z,97.74
2023-02-05T22:39:47.863Z,97.73
2023-02-05T22:42:14.667Z,97.31
2023-02-05T22:44:41.191Z,97.11
2023-02-05T22:47:07.746Z,97.32
2023-02-05T22:49:34.994Z,97.47
2023-02-05T22:52:02.515Z,97.32
2023-02-05T22:54:29.091Z,97.30
2023-02-05T22:56:55.716Z,97.59
2023-02-05T22:59:22.288Z,97.74
2023-02-05T23:01:48.887Z,97.40
2023-02-05T23:04:15.456Z,97.54
2023-02-05T23:06:43.223Z,97.37
2023-02-05T23:09:16.380Z,97.48
2023-02-05T23:11:44.021Z,97.42
2023-02-05T23:14:12.224Z,97.79
2023-02-05T23:16:41.450Z,97.73
2023-02-05T23:19:12.428Z,97.63
2023-02-05T23:21:40.324Z,97.97
2023-02-05T23:24:08.119Z,97.74
2023-02-05T23:26:39.681Z,97.76
2023-02-05T23:29:07.011Z,97.76
2023-02-05T23:31:33.695Z,97.79
2023-02-05T23:34:00.518Z,97.82
2023-02-05T23:36:27.137Z,97.79
2023-02-05T23:38:53.699Z,98.41
2023-02-05T23:41:35.510Z,98.16
2023-02-05T23:44:09.748Z,98.03
2023-02-05T23:46:37.194Z,98.05
2023-02-05T23:49:05.227Z,98.04
2023-02-05T23:51:32.248Z,98.12
2023-02-05T23:53:58.845Z,98.02
2023-02-05T23:56:26.492Z,98.03
2023-02-05T23:58:53.095Z,98.08
